createdAt,value
2019-04-16T00:00:26.192Z,3.30
2019-04-16T00:02:56.812Z,3.40
2019-04-16T00:16:44.570Z,3.23
2019-04-16T00:19:12.579Z,3.73
2019-04-16T00:22:06.326Z,3.47
2019-04-16T00:24:37.633Z,3.20
2019-04-16T00:27:06.824Z,3.40
2019-04-16T00:29:35.822Z,3.17
2019-04-16T00:32:22.483Z,3.53
2019-04-16T00:34:51.301Z,3.90
2019-04-16T00:37:21.247Z,3.50
2019-04-16T00:39:50.477Z,3.40
2019-04-16T00:42:19.343Z,3.30
2019-04-16T00:44:48.201Z,3.53
2019-04-16T00:47:17.142Z,3.70
2019-04-16T00:49:45.961Z,3.47
2019-04-16T00:52:14.818Z,3.60
2019-04-16T00:54:43.827Z,3.80
2019-04-16T00:57:17.796Z,3.47
2019-04-16T00:59:43.542Z,3.40
2019-04-16T01:02:12.565Z,3.80
2019-04-16T01:04:41.616Z,3.50
2019-04-16T01:07:10.743Z,3.07
2019-04-16T01:09:39.652Z,3.40
2019-04-16T01:12:08.693Z,3.40
2019-04-16T01:14:38.095Z,3.80
2019-04-16T01:17:07.270Z,3.40
2019-04-16T01:19:38.344Z,4.30
2019-04-16T01:22:06.797Z,3.20
2019-04-16T01:24:35.817Z,4.13
2019-04-16T01:27:04.755Z,3.60
2019-04-16T01:29:34.668Z,3.83
2019-04-16T01:32:42.386Z,3.60
2019-04-16T01:35:28.971Z,3.90
2019-04-16T01:38:35.144Z,3.83
2019-04-16T01:41:05.732Z,3.80
2019-04-16T01:43:34.728Z,4.00
2019-04-16T01:46:04.139Z,3.83
2019-04-16T01:48:33.111Z,3.60
2019-04-16T01:51:02.118Z,3.80
2019-04-16T01:53:31.008Z,3.57
2019-04-16T01:55:59.958Z,3.80
2019-04-16T01:58:33.542Z,3.33
2019-04-16T02:00:59.514Z,3.73
2019-04-16T02:03:28.428Z,3.33
2019-04-16T02:05:57.271Z,3.77
2019-04-16T02:08:28.351Z,3.63
2019-04-16T02:10:56.776Z,3.90
2019-04-16T02:13:25.688Z,3.90
2019-04-16T02:15:54.682Z,4.60
2019-04-16T02:18:23.736Z,4.20
2019-04-16T02:20:52.678Z,4.10
2019-04-16T02:23:21.600Z,4.07
2019-04-16T02:25:51.334Z,3.97
2019-04-16T02:28:21.700Z,4.00
2019-04-16T02:30:51.378Z,4.10
2019-04-16T02:33:20.293Z,3.83
2019-04-16T02:35:49.249Z,3.60
2019-04-16T02:38:18.089Z,4.10
2019-04-16T02:40:51.984Z,3.73
2019-04-16T02:43:18.079Z,3.30
2019-04-16T02:45:47.042Z,3.90
2019-04-16T02:48:17.347Z,3.87
2019-04-16T02:50:56.099Z,3.93
2019-04-16T02:53:39.938Z,3.90
2019-04-16T02:56:26.732Z,4.10
2019-04-16T02:59:09.775Z,4.03
2019-04-16T03:01:54.433Z,4.03
2019-04-16T03:04:26.969Z,3.73
2019-04-16T03:06:56.830Z,3.70
2019-04-16T03:09:25.866Z,3.73
2019-04-16T03:11:54.934Z,4.30
2019-04-16T03:14:24.017Z,3.50
2019-04-16T03:17:11.736Z,3.53
2019-04-16T03:19:42.583Z,3.63
2019-04-16T03:22:11.505Z,4.03
2019-04-16T03:24:41.067Z,4.37
2019-04-16T03:27:10.118Z,3.40
2019-04-16T03:29:39.511Z,3.57
2019-04-16T03:32:12.824Z,4.20
2019-04-16T03:34:39.093Z,4.07
2019-04-16T03:37:08.022Z,3.83
2019-04-16T03:39:37.019Z,3.80
2019-04-16T03:42:06.367Z,3.73
2019-04-16T03:44:37.216Z,4.00
2019-04-16T03:47:05.984Z,4.10
2019-04-16T03:49:35.047Z,3.93
2019-04-16T03:52:08.244Z,3.63
2019-04-16T03:54:35.582Z,3.70
2019-04-16T03:57:04.881Z,4.20
2019-04-16T03:59:33.764Z,4.13
2019-04-16T04:02:03.513Z,4.10
2019-04-16T04:04:32.486Z,3.80
2019-04-16T04:07:01.497Z,3.73
2019-04-16T04:09:30.827Z,4.40
2019-04-16T04:11:59.715Z,3.93
2019-04-16T04:14:28.621Z,4.00
2019-04-16T04:16:57.511Z,4.07
2019-04-16T04:19:26.435Z,4.73
2019-04-16T04:21:55.449Z,4.00
2019-04-16T04:24:24.481Z,4.00
2019-04-16T04:26:53.371Z,4.37
2019-04-16T04:29:24.673Z,3.87
2019-04-16T04:31:53.163Z,3.87
2019-04-16T04:34:22.004Z,4.30
2019-04-16T04:36:51.963Z,3.87
2019-04-16T04:39:20.908Z,4.20
2019-04-16T04:41:52.609Z,4.13
2019-04-16T04:44:20.626Z,4.17
2019-04-16T04:46:49.688Z,4.30
2019-04-16T04:49:18.760Z,4.17
2019-04-16T04:51:47.760Z,4.50
2019-04-16T04:54:21.672Z,4.07
2019-04-16T04:56:47.646Z,4.40
2019-04-16T04:59:17.879Z,3.70
2019-04-16T05:01:46.855Z,4.37
2019-04-16T05:04:36.639Z,4.23
2019-04-16T05:07:07.287Z,4.20
2019-04-16T05:09:36.830Z,4.40
2019-04-16T05:12:08.076Z,4.63
2019-04-16T05:14:39.942Z,4.20
2019-04-16T05:17:09.029Z,4.83
2019-04-16T05:19:59.203Z,4.90
2019-04-16T05:22:28.351Z,4.60
2019-04-16T05:25:01.084Z,4.87
2019-04-16T05:27:29.529Z,4.50
2019-04-16T05:29:58.670Z,4.60
2019-04-16T05:32:32.900Z,4.30
2019-04-16T05:34:58.415Z,4.70
2019-04-16T05:37:27.498Z,4.73
2019-04-16T05:39:58.813Z,4.80
2019-04-16T05:42:27.134Z,4.70
2019-04-16T05:44:55.995Z,4.73
2019-04-16T05:47:25.184Z,5.17
2019-04-16T05:49:54.411Z,5.80
2019-04-16T05:52:24.804Z,4.90
2019-04-16T05:55:17.980Z,4.57
2019-04-16T05:57:47.053Z,4.47
2019-04-16T06:00:44.541Z,4.03
2019-04-16T06:05:41.761Z,4.03
2019-04-16T06:08:12.309Z,4.23
2019-04-16T06:10:49.751Z,4.03
2019-04-16T06:13:41.323Z,4.40
2019-04-16T06:16:27.442Z,4.50
2019-04-16T06:19:12.224Z,3.93
2019-04-16T06:21:58.968Z,3.87
2019-04-16T06:24:54.034Z,3.83
2019-04-16T06:27:40.625Z,5.47
2019-04-16T06:30:41.367Z,5.73
2019-04-16T06:33:13.586Z,6.30
2019-04-16T06:36:08.238Z,6.50
2019-04-16T06:38:46.241Z,5.93
2019-04-16T06:41:41.397Z,6.43
2019-04-16T06:44:06.532Z,5.87
2019-04-16T06:46:55.542Z,5.77
2019-04-16T06:49:34.395Z,5.87
2019-04-16T06:52:18.087Z,6.00
2019-04-16T06:55:00.553Z,5.93
2019-04-16T06:57:50.071Z,6.17
2019-04-16T07:00:50.125Z,6.77
2019-04-16T07:03:36.806Z,7.27
2019-04-16T07:06:24.893Z,6.80
2019-04-16T07:09:11.997Z,8.75
2019-04-16T07:11:53.727Z,6.60
2019-04-16T07:14:15.691Z,7.20
2019-04-16T07:16:42.995Z,6.53
2019-04-16T07:19:12.234Z,6.20
2019-04-16T07:21:41.830Z,5.58
2019-04-16T07:24:16.835Z,6.62
2019-04-16T07:26:48.083Z,5.30
2019-04-16T07:29:39.281Z,4.30
2019-04-16T07:32:20.168Z,4.37
2019-04-16T07:35:08.196Z,4.87
2019-04-16T07:37:55.159Z,4.20
2019-04-16T07:40:42.093Z,4.67
2019-04-16T07:43:45.482Z,4.23
2019-04-16T07:46:27.055Z,4.20
2019-04-16T07:49:04.768Z,4.07
2019-04-16T07:51:50.697Z,4.00
2019-04-16T07:54:44.766Z,4.33
2019-04-16T07:57:14.329Z,3.83
2019-04-16T07:59:44.408Z,4.10
2019-04-16T08:02:13.414Z,4.20
2019-04-16T08:04:42.461Z,4.20
2019-04-16T08:07:11.326Z,3.70
2019-04-16T08:09:40.487Z,4.10
2019-04-16T08:12:22.022Z,4.27
2019-04-16T08:14:40.732Z,4.00
2019-04-16T08:17:10.158Z,4.10
2019-04-16T08:19:44.778Z,4.30
2019-04-16T08:22:15.523Z,4.00
2019-04-16T08:24:46.738Z,4.37
2019-04-16T08:27:19.222Z,4.03
2019-04-16T08:29:46.413Z,4.20
2019-04-16T08:32:16.175Z,4.30
2019-04-16T08:34:45.790Z,3.90
2019-04-16T08:37:14.774Z,4.10
2019-04-16T08:39:43.747Z,4.33
2019-04-16T08:42:12.712Z,4.33
2019-04-16T08:44:41.714Z,4.20
2019-04-16T08:47:16.983Z,3.87
2019-04-16T08:49:46.055Z,4.33
2019-04-16T08:52:20.573Z,4.40
2019-04-16T08:54:50.396Z,4.47
2019-04-16T08:57:20.202Z,4.30
2019-04-16T08:59:49.153Z,4.43
2019-04-16T09:02:18.190Z,4.73
2019-04-16T09:04:47.060Z,4.50
2019-04-16T09:07:33.763Z,4.70
2019-04-16T09:10:16.244Z,5.03
2019-04-16T09:12:34.047Z,4.57
2019-04-16T09:15:03.260Z,4.83
2019-04-16T09:17:38.714Z,4.60
2019-04-16T09:20:16.339Z,5.20
2019-04-16T09:22:49.332Z,5.03
2019-04-16T09:25:36.136Z,4.80
2019-04-16T09:28:39.650Z,4.90
2019-04-16T09:31:42.986Z,5.43
2019-04-16T09:34:40.504Z,5.10
2019-04-16T09:37:25.538Z,5.30
2019-04-16T09:42:33.797Z,5.27
2019-04-16T09:45:05.092Z,4.57
2019-04-16T09:47:33.737Z,5.20
2019-04-16T09:50:02.915Z,5.20
2019-04-16T09:52:31.980Z,5.00
2019-04-16T09:55:01.164Z,4.80
2019-04-16T09:57:31.455Z,5.20
2019-04-16T10:00:02.910Z,5.53
2019-04-16T10:02:34.277Z,4.53
2019-04-16T10:05:07.161Z,5.27
2019-04-16T10:07:39.839Z,5.43
2019-04-16T10:10:07.619Z,5.10
2019-04-16T10:12:36.575Z,5.50
2019-04-16T10:15:07.245Z,5.27
2019-04-16T10:17:37.345Z,5.07
2019-04-16T10:20:06.774Z,5.50
2019-04-16T10:22:35.801Z,5.10
2019-04-16T10:25:08.431Z,5.27
2019-04-16T10:27:42.412Z,5.77
2019-04-16T10:30:19.556Z,4.90
2019-04-16T10:32:49.133Z,5.50
2019-04-16T10:35:18.409Z,5.20
2019-04-16T10:37:47.639Z,5.03
2019-04-16T10:40:52.843Z,5.00
2019-04-16T10:43:44.862Z,4.90
2019-04-16T10:46:37.317Z,5.17
2019-04-16T10:49:12.289Z,5.37
2019-04-16T10:51:48.172Z,5.10
2019-04-16T10:54:37.325Z,5.23
2019-04-16T10:57:38.262Z,5.50
2019-04-16T11:00:19.942Z,5.20
2019-04-16T11:02:58.214Z,5.20
2019-04-16T11:05:51.049Z,5.13
2019-04-16T11:08:19.963Z,5.20
2019-04-16T11:20:16.319Z,5.30
2019-04-16T11:23:11.021Z,5.67
2019-04-16T11:25:31.508Z,6.10
2019-04-16T11:28:00.935Z,6.70
2019-04-16T11:33:35.581Z,6.50
2019-04-16T11:36:18.566Z,6.13
2019-04-16T11:38:38.724Z,6.27
2019-04-16T11:45:25.878Z,6.37
2019-04-16T11:47:57.421Z,5.90
2019-04-16T11:50:27.095Z,6.60
2019-04-16T11:52:58.402Z,6.30
2019-04-16T11:55:26.881Z,5.97
2019-04-16T11:57:55.843Z,6.53
2019-04-16T12:00:48.992Z,6.10
2019-04-16T12:03:36.987Z,5.80
2019-04-16T12:06:37.471Z,6.43
2019-04-16T12:09:47.325Z,6.63
2019-04-16T12:15:54.289Z,6.20
2019-04-16T12:18:32.149Z,6.50
2019-04-16T12:27:53.062Z,6.40
2019-04-16T12:34:15.893Z,5.73
2019-04-16T12:36:55.718Z,5.90
2019-04-16T12:39:41.725Z,5.53
2019-04-16T12:42:23.990Z,5.97
2019-04-16T12:44:59.748Z,5.70
2019-04-16T12:47:33.643Z,5.13
2019-04-16T12:50:08.154Z,5.53
2019-04-16T12:52:56.073Z,5.53
2019-04-16T12:55:36.023Z,5.23
2019-04-16T12:58:12.686Z,5.00
2019-04-16T13:01:04.619Z,4.90
2019-04-16T13:03:37.973Z,4.77
2019-04-16T13:06:26.946Z,4.80
2019-04-16T13:09:12.913Z,4.90
2019-04-16T13:11:57.286Z,4.50
2019-04-16T13:15:00.758Z,4.90
2019-04-16T13:17:47.857Z,5.07
2019-04-16T13:20:50.941Z,5.10
2019-04-16T13:23:35.572Z,4.87
2019-04-16T13:26:12.830Z,4.90
2019-04-16T13:28:41.013Z,4.83
2019-04-16T13:31:10.012Z,4.73
2019-04-16T13:33:46.882Z,4.97
2019-04-16T13:36:18.422Z,4.90
2019-04-16T13:38:53.660Z,5.47
2019-04-16T13:44:56.059Z,4.77
2019-04-16T13:47:25.168Z,4.67
2019-04-16T13:50:02.604Z,4.70
2019-04-16T13:52:31.188Z,4.47
2019-04-16T13:55:29.601Z,4.30
2019-04-16T13:58:10.915Z,5.10
2019-04-16T14:00:44.328Z,5.60
2019-04-16T14:03:15.682Z,4.83
2019-04-16T14:05:44.643Z,5.27
2019-04-16T14:08:20.334Z,5.40
2019-04-16T14:10:49.303Z,4.57
2019-04-16T14:13:18.236Z,4.70
2019-04-16T14:15:47.189Z,4.40
2019-04-16T14:18:16.242Z,4.30
2019-04-16T14:20:45.228Z,4.07
2019-04-16T14:23:14.679Z,4.17
2019-04-16T14:25:43.718Z,4.37
2019-04-16T14:28:12.832Z,3.73
2019-04-16T14:30:45.715Z,3.70
2019-04-16T14:33:18.580Z,4.10
2019-04-16T14:35:53.595Z,3.30
2019-04-16T14:42:06.104Z,4.23
2019-04-16T14:44:59.869Z,3.90
2019-04-16T14:47:32.955Z,3.60
2019-04-16T14:50:02.924Z,3.70
2019-04-16T14:52:32.128Z,4.00
2019-04-16T14:55:12.597Z,3.60
2019-04-16T14:57:59.638Z,3.80
2019-04-16T15:00:46.462Z,3.83
2019-04-16T15:03:31.368Z,3.90
2019-04-16T15:06:31.719Z,4.13
2019-04-16T15:09:12.959Z,4.27
2019-04-16T15:12:07.491Z,3.75
2019-04-16T15:14:39.781Z,3.77
2019-04-16T15:17:19.119Z,3.90
2019-04-16T15:20:07.239Z,3.92
2019-04-16T15:22:47.151Z,3.80
2019-04-16T15:25:41.103Z,4.00
2019-04-16T15:28:48.853Z,4.12
2019-04-16T15:31:43.119Z,3.85
2019-04-16T15:34:14.732Z,4.67
2019-04-16T15:36:54.930Z,4.47
2019-04-16T15:39:36.578Z,4.33
2019-04-16T15:42:30.227Z,4.35
2019-04-16T15:45:35.128Z,4.28
2019-04-16T15:52:19.399Z,4.62
2019-04-16T15:55:06.401Z,4.50
2019-04-16T15:57:52.527Z,4.33
2019-04-16T16:00:39.719Z,4.72
2019-04-16T16:03:36.538Z,4.65
2019-04-16T16:06:24.617Z,4.62
2019-04-16T16:09:09.144Z,4.83
2019-04-16T16:11:47.972Z,4.95
2019-04-16T16:14:16.416Z,4.83
2019-04-16T16:16:47.859Z,5.10
2019-04-16T16:19:17.053Z,5.35
2019-04-16T16:21:46.421Z,5.72
2019-04-16T16:27:57.465Z,5.67
2019-04-16T16:30:28.047Z,5.90
2019-04-16T16:36:26.037Z,5.97
2019-04-16T16:38:56.120Z,5.93
2019-04-16T16:41:47.489Z,5.83
2019-04-16T16:44:16.627Z,6.83
2019-04-16T16:47:08.206Z,6.00
2019-04-16T16:52:31.431Z,6.00
2019-04-16T16:55:02.572Z,5.90
2019-04-16T16:57:45.028Z,6.47
2019-04-16T17:00:32.206Z,5.90
2019-04-16T17:03:10.193Z,6.00
2019-04-16T17:05:40.747Z,6.60
2019-04-16T17:08:10.918Z,6.23
2019-04-16T17:10:42.423Z,6.50
2019-04-16T17:13:14.672Z,6.50
2019-04-16T17:15:42.093Z,6.47
2019-04-16T17:18:13.023Z,6.20
2019-04-16T17:20:42.189Z,6.10
2019-04-16T17:26:39.730Z,6.30
2019-04-16T17:29:08.789Z,6.33
2019-04-16T17:31:49.051Z,6.13
2019-04-16T17:34:40.802Z,6.00
2019-04-16T17:37:10.631Z,5.73
2019-04-16T17:39:47.137Z,6.00
2019-04-16T17:42:17.593Z,5.87
2019-04-16T17:45:12.716Z,5.40
2019-04-16T17:48:10.016Z,6.00
2019-04-16T17:51:04.544Z,5.73
2019-04-16T17:53:46.129Z,5.77
2019-04-16T17:56:33.198Z,6.07
2019-04-16T17:59:08.561Z,5.37
2019-04-16T18:01:55.782Z,5.60
2019-04-16T18:04:44.868Z,5.33
2019-04-16T18:07:37.333Z,5.20
2019-04-16T18:10:26.862Z,5.20
2019-04-16T18:13:16.518Z,5.00
2019-04-16T18:15:55.154Z,4.97
2019-04-16T18:18:36.537Z,5.20
2019-04-16T18:21:13.104Z,5.10
2019-04-16T18:23:57.008Z,5.20
2019-04-16T18:26:59.180Z,5.80
2019-04-16T18:30:05.215Z,5.10
2019-04-16T18:32:52.491Z,4.70
2019-04-16T18:35:27.084Z,5.17
2019-04-16T18:38:11.154Z,5.37
2019-04-16T18:41:04.807Z,5.30
2019-04-16T18:43:47.192Z,5.27
2019-04-16T18:46:47.372Z,5.43
2019-04-16T18:49:18.342Z,5.33
2019-04-16T18:51:47.162Z,5.50
2019-04-16T18:54:16.161Z,5.63
2019-04-16T18:59:38.529Z,5.37
2019-04-16T19:02:10.852Z,5.23
2019-04-16T19:04:40.292Z,5.60
2019-04-16T19:07:10.696Z,5.70
2019-04-16T19:09:39.861Z,5.90
2019-04-16T19:12:08.863Z,5.73
2019-04-16T19:14:37.940Z,5.67
2019-04-16T19:17:07.075Z,6.30
2019-04-16T19:19:44.490Z,5.57
2019-04-16T19:22:11.753Z,5.40
2019-04-16T19:24:41.016Z,5.90
2019-04-16T19:27:12.382Z,5.57
2019-04-16T19:29:42.858Z,5.80
2019-04-16T19:32:12.890Z,5.73
2019-04-16T19:34:42.096Z,6.03
2019-04-16T19:37:12.355Z,5.97
2019-04-16T19:39:43.727Z,5.80
2019-04-16T19:42:13.327Z,6.30
2019-04-16T19:44:42.333Z,6.23
2019-04-16T19:47:12.072Z,6.60
2019-04-16T19:49:41.226Z,6.23
2019-04-16T19:52:10.404Z,6.53
2019-04-16T19:54:39.383Z,6.50
2019-04-16T19:57:09.946Z,6.77
2019-04-16T19:59:39.096Z,6.27
2019-04-16T20:02:08.507Z,6.27
2019-04-16T20:04:37.485Z,5.80
2019-04-16T20:07:06.943Z,5.37
2019-04-16T20:09:39.096Z,5.90
2019-04-16T20:12:08.796Z,5.83
2019-04-16T20:14:37.818Z,5.67
2019-04-16T20:17:06.887Z,5.20
2019-04-16T20:19:55.130Z,5.03
2019-04-16T20:25:56.329Z,4.73
2019-04-16T20:28:26.652Z,5.13
2019-04-16T20:31:02.203Z,4.40
2019-04-16T20:33:28.103Z,4.50
2019-04-16T20:35:57.076Z,4.27
2019-04-16T20:38:29.169Z,4.53
2019-04-16T20:40:56.906Z,4.40
2019-04-16T20:43:26.452Z,4.40
2019-04-16T20:45:55.793Z,4.00
2019-04-16T20:48:24.810Z,4.40
2019-04-16T20:50:59.264Z,4.33
2019-04-16T20:56:55.411Z,5.00
2019-04-16T20:59:24.416Z,3.97
2019-04-16T21:01:54.028Z,4.17
2019-04-16T21:04:23.497Z,4.23
2019-04-16T21:06:52.679Z,4.30
2019-04-16T21:09:21.582Z,4.53
2019-04-16T21:11:52.679Z,4.40
2019-04-16T21:14:21.816Z,4.00
2019-04-16T21:16:51.622Z,4.30
2019-04-16T21:19:23.717Z,4.50
2019-04-16T21:21:55.671Z,4.33
2019-04-16T21:24:23.600Z,4.40
2019-04-16T21:26:52.527Z,4.57
2019-04-16T21:29:34.883Z,4.33
2019-04-16T21:32:09.691Z,4.50
2019-04-16T21:34:59.909Z,4.40
2019-04-16T21:37:36.407Z,4.30
2019-04-16T21:40:05.697Z,4.50
2019-04-16T21:42:35.621Z,4.50
2019-04-16T21:45:05.530Z,4.27
2019-04-16T21:47:34.677Z,4.77
2019-04-16T21:50:03.668Z,4.47
2019-04-16T21:52:33.019Z,4.67
2019-04-16T21:55:04.361Z,4.70
2019-04-16T21:57:32.748Z,4.50
2019-04-16T22:00:01.861Z,4.23
2019-04-16T22:02:34.507Z,4.43
2019-04-16T22:05:06.198Z,4.60
2019-04-16T22:07:35.178Z,4.50
2019-04-16T22:10:04.335Z,4.37
2019-04-16T22:12:33.347Z,4.50
2019-04-16T22:15:02.399Z,4.50
2019-04-16T22:17:35.452Z,4.20
2019-04-16T22:20:04.362Z,4.67
2019-04-16T22:22:32.526Z,4.50
2019-04-16T22:25:02.025Z,4.30
2019-04-16T22:27:33.313Z,4.77
2019-04-16T22:30:02.185Z,4.17
2019-04-16T22:32:31.388Z,4.60
2019-04-16T22:35:00.314Z,4.30
2019-04-16T22:37:29.114Z,4.27
2019-04-16T22:40:16.322Z,4.10
2019-04-16T22:43:06.572Z,4.83
2019-04-16T22:46:05.406Z,4.57
2019-04-16T22:48:35.470Z,5.20
2019-04-16T22:51:09.679Z,4.80
2019-04-16T22:53:35.348Z,4.60
2019-04-16T22:56:04.769Z,4.60
2019-04-16T22:58:49.556Z,4.63
2019-04-16T23:01:23.363Z,4.50
2019-04-16T23:03:54.434Z,4.90
2019-04-16T23:06:23.687Z,4.90
2019-04-16T23:08:52.935Z,4.90
2019-04-16T23:11:23.743Z,4.87
2019-04-16T23:13:53.635Z,4.57
2019-04-16T23:16:22.785Z,5.50
2019-04-16T23:18:51.645Z,5.10
2019-04-16T23:21:20.925Z,4.53
2019-04-16T23:23:51.450Z,5.20
2019-04-16T23:26:20.524Z,4.80
2019-04-16T23:28:49.423Z,4.50
2019-04-16T23:31:19.617Z,4.80
2019-04-16T23:33:48.640Z,5.03
2019-04-16T23:36:17.564Z,4.80
2019-04-16T23:38:46.437Z,5.20
2019-04-16T23:41:16.651Z,4.80
2019-04-16T23:43:53.595Z,5.30
2019-04-16T23:46:40.423Z,5.50
2019-04-16T23:49:31.579Z,5.90
2019-04-16T23:52:05.822Z,5.40
2019-04-16T23:54:40.782Z,5.27
2019-04-16T23:57:25.555Z,4.80
